Time;durP1;ratioP1;P1;durP2;ratioP2;P2;SDS_P1;SDS_P2;PMS_P1;PMS_P2;Temp;Humidity;BMP_temperature;BMP_pressure;BME280_temperature;BME280_humidity;BME280_pressure;Samples;Min_cycle;Max_cycle;Signal;HPM_P1;HPM_P2
2024/02/27 00:00:12;;;;;;;;;20.00;17.67;;;;;12.20;100.00;100509.28;2107700;27;46387;-52
2024/02/27 00:01:12;;;;;;;;;17.67;15.33;;;;;12.20;100.00;100511.94;2107726;27;46806;-52
2024/02/27 00:02:13;;;;;;;;;16.67;16.67;;;;;12.19;100.00;100510.19;2106030;27;46248;-54
2024/02/27 00:03:13;;;;;;;;;18.33;17.00;;;;;12.19;100.00;100512.84;2107114;27;46424;-52
2024/02/27 00:04:14;;;;;;;;;14.67;13.67;;;;;12.20;100.00;100514.63;2106026;27;46338;-53
2024/02/27 00:05:14;;;;;;;;;18.33;17.67;;;;;12.21;100.00;100505.72;2106308;27;46614;-50
2024/02/27 00:06:14;;;;;;;;;14.67;14.33;;;;;12.21;100.00;100518.13;2106280;27;45906;-51
2024/02/27 00:07:15;;;;;;;;;18.33;17.33;;;;;12.21;100.00;100526.13;2106325;27;46102;-52
2024/02/27 00:08:15;;;;;;;;;20.67;19.00;;;;;12.22;100.00;100517.22;2108037;27;46786;-53
2024/02/27 00:09:18;;;;;;;;;17.67;16.00;;;;;12.21;100.00;100521.66;2105627;27;46617;-54
2024/02/27 00:10:18;;;;;;;;;19.25;18.50;;;;;12.22;100.00;100530.53;2106041;27;45530;-52
2024/02/27 00:11:19;;;;;;;;;22.00;19.00;;;;;12.20;100.00;100519.94;2107682;27;46889;-53
2024/02/27 00:12:21;;;;;;;;;16.67;16.33;;;;;12.20;100.00;100533.22;2106221;27;45282;-53
2024/02/27 00:13:21;;;;;;;;;16.25;15.00;;;;;12.19;100.00;100523.47;2105175;27;46319;-55
2024/02/27 00:14:22;;;;;;;;;14.33;14.33;;;;;12.18;100.00;100536.84;2106703;27;46352;-52
2024/02/27 00:15:22;;;;;;;;;20.00;18.00;;;;;12.18;100.00;100536.84;2106690;27;46048;-53
2024/02/27 00:16:23;;;;;;;;;21.00;18.00;;;;;12.18;100.00;100539.50;2108070;27;46246;-53
2024/02/27 00:17:23;;;;;;;;;21.67;21.00;;;;;12.17;100.00;100537.75;2107762;27;46465;-54
2024/02/27 00:18:23;;;;;;;;;18.67;16.33;;;;;12.18;100.00;100547.47;2107926;27;46196;-50
2024/02/27 00:19:24;;;;;;;;;21.67;19.67;;;;;12.16;100.00;100534.22;2107357;27;46839;-50
2024/02/27 00:20:25;;;;;;;;;18.00;17.00;;;;;12.16;100.00;100554.63;2107343;27;46667;-52
2024/02/27 00:21:25;;;;;;;;;18.25;17.25;;;;;12.16;100.00;100539.56;2107553;27;46817;-53
2024/02/27 00:22:26;;;;;;;;;19.33;18.00;;;;;12.19;100.00;100550.09;2106971;27;46455;-51
2024/02/27 00:23:27;;;;;;;;;17.00;16.00;;;;;12.22;100.00;100546.50;2107246;27;45660;-53
2024/02/27 00:24:27;;;;;;;;;18.75;17.50;;;;;12.23;100.00;100556.22;2107592;27;47096;-51
2024/02/27 00:25:27;;;;;;;;;12.33;11.00;;;;;12.22;100.00;100551.81;2107077;27;45842;-51
2024/02/27 00:26:28;;;;;;;;;21.00;21.00;;;;;12.23;100.00;100556.22;2104132;27;46222;-50
2024/02/27 00:27:28;;;;;;;;;18.67;17.67;;;;;12.23;100.00;100553.53;2106781;27;45841;-54
2024/02/27 00:28:29;;;;;;;;;20.33;19.00;;;;;12.24;100.00;100555.28;2106723;27;46912;-52
2024/02/27 00:29:31;;;;;;;;;19.00;18.67;;;;;12.27;100.00;100565.81;2104019;27;46159;-51
2024/02/27 00:30:32;;;;;;;;;20.00;18.50;;;;;12.26;100.00;100554.31;2105573;27;46597;-50
2024/02/27 00:31:32;;;;;;;;;19.00;18.00;;;;;12.22;100.00;100563.31;2106458;27;46687;-55
2024/02/27 00:32:32;;;;;;;;;18.33;18.33;;;;;12.20;100.00;100573.16;2105709;27;46631;-54
2024/02/27 00:33:33;;;;;;;;;21.67;19.67;;;;;12.20;100.00;100572.28;2107014;27;46687;-52
2024/02/27 00:34:35;;;;;;;;;16.67;16.67;;;;;12.14;100.00;100573.31;2107282;27;46349;-52
2024/02/27 00:35:35;;;;;;;;;19.25;19.25;;;;;12.12;100.00;100564.50;2106778;27;46315;-54
2024/02/27 00:36:36;;;;;;;;;20.00;18.67;;;;;12.12;100.00;100566.31;2106500;27;46183;-54
2024/02/27 00:37:36;;;;;;;;;21.00;19.67;;;;;12.11;100.00;100570.75;2098756;28;46202;-52
2024/02/27 00:38:36;;;;;;;;;19.33;19.00;;;;;12.12;100.00;100572.50;2090621;28;46247;-53
2024/02/27 00:39:37;;;;;;;;;17.33;16.67;;;;;12.13;100.00;100579.56;2097680;28;46312;-52
2024/02/27 00:40:37;;;;;;;;;15.33;14.33;;;;;12.15;100.00;100571.53;2107070;27;46310;-54
2024/02/27 00:41:40;;;;;;;;;21.25;21.25;;;;;12.16;100.00;100570.59;2106124;27;46811;-53
2024/02/27 00:42:40;;;;;;;;;23.25;20.00;;;;;12.15;100.00;100575.06;2107375;27;46926;-54
2024/02/27 00:43:41;;;;;;;;;22.33;19.33;;;;;12.16;100.00;100571.47;2105428;27;46597;-54
2024/02/27 00:44:45;;;;;;;;;18.50;17.50;;;;;12.18;100.00;100568.75;2107758;27;46483;-51
2024/02/27 00:45:45;;;;;;;;;21.50;20.75;;;;;12.16;100.00;100574.13;2107794;27;46827;-54
2024/02/27 00:46:46;;;;;;;;;23.00;20.67;;;;;12.17;100.00;100582.97;2097775;28;46309;-51
2024/02/27 00:47:46;;;;;;;;;18.00;18.00;;;;;12.17;100.00;100575.00;2096605;28;46324;-53
2024/02/27 00:48:46;;;;;;;;;20.50;20.00;;;;;12.18;100.00;100582.94;2107452;27;46381;-51
2024/02/27 00:49:47;;;;;;;;;20.67;19.67;;;;;12.19;100.00;100583.81;2107476;27;46408;-53
2024/02/27 00:50:48;;;;;;;;;26.40;24.00;;;;;12.19;100.00;100584.66;2105249;27;46702;-51
2024/02/27 00:51:48;;;;;;;;;27.00;21.00;;;;;12.19;100.00;100583.81;2105916;27;46451;-53
2024/02/27 00:52:49;;;;;;;;;20.75;20.50;;;;;12.18;100.00;100587.38;2105456;27;46234;-53
2024/02/27 00:53:49;;;;;;;;;23.00;21.25;;;;;12.16;100.00;100591.88;2107209;27;46346;-52
2024/02/27 00:54:49;;;;;;;;;27.50;23.75;;;;;12.15;100.00;100588.34;2106198;27;46323;-54
2024/02/27 00:55:50;;;;;;;;;22.25;22.00;;;;;12.13;100.00;100590.19;2106428;27;46259;-53
2024/02/27 00:56:50;;;;;;;;;25.25;23.75;;;;;12.15;100.00;100587.47;2099231;28;46253;-52
2024/02/27 00:57:51;;;;;;;;;22.50;22.50;;;;;12.13;100.00;100591.97;2098692;28;46519;-51
2024/02/27 00:58:51;;;;;;;;;26.25;25.50;;;;;12.14;100.00;100596.38;2107972;27;46113;-52
2024/02/27 00:59:51;;;;;;;;;24.00;22.00;;;;;12.13;100.00;100600.84;2108606;27;46157;-53
2024/02/27 01:00:52;;;;;;;;;23.50;22.75;;;;;12.11;100.00;100601.81;2107473;27;45443;-50
2024/02/27 01:01:52;;;;;;;;;25.75;25.75;;;;;12.11;100.00;100599.16;2108708;27;46362;-53
2024/02/27 01:02:52;;;;;;;;;26.00;24.75;;;;;12.10;100.00;100606.25;2105972;27;46162;-53
2024/02/27 01:03:53;;;;;;;;;25.75;25.50;;;;;12.00;100.00;100599.44;2105901;27;46974;-54
2024/02/27 01:04:53;;;;;;;;;22.50;21.25;;;;;12.06;100.00;100599.25;2108951;27;46435;-55
2024/02/27 01:05:53;;;;;;;;;25.50;23.50;;;;;12.13;100.00;100614.13;2108841;27;46177;-51
2024/02/27 01:06:54;;;;;;;;;24.25;24.25;;;;;12.15;100.00;100599.00;2109082;27;46316;-54
2024/02/27 01:07:54;;;;;;;;;25.25;24.25;;;;;12.16;100.00;100614.03;2107956;27;46875;-53
2024/02/27 01:08:54;;;;;;;;;27.00;23.25;;;;;12.17;100.00;100617.56;2107753;27;47075;-55
2024/02/27 01:09:55;;;;;;;;;25.25;22.75;;;;;12.17;100.00;100612.25;2106320;27;46506;-56
2024/02/27 01:10:55;;;;;;;;;24.75;23.75;;;;;12.17;100.00;100605.13;2098988;28;46572;-53
2024/02/27 01:11:56;;;;;;;;;23.50;23.50;;;;;12.19;100.00;100621.03;2099554;28;46325;-54
2024/02/27 01:12:56;;;;;;;;;24.33;23.67;;;;;12.20;100.00;100620.16;2108141;27;46165;-52
2024/02/27 01:13:57;;;;;;;;;22.33;22.33;;;;;12.21;100.00;100612.13;2108222;27;46876;-55
2024/02/27 01:14:57;;;;;;;;;25.75;25.25;;;;;12.19;100.00;100621.91;2108568;27;46675;-54
2024/02/27 01:15:58;;;;;;;;;22.00;21.67;;;;;12.19;100.00;100621.03;2107691;27;46424;-55
2024/02/27 01:16:59;;;;;;;;;23.00;22.00;;;;;12.18;100.00;100625.50;2108490;27;46795;-52
2024/02/27 01:18:00;;;;;;;;;25.80;25.80;;;;;12.17;100.00;100626.41;2108378;27;46292;-52
2024/02/27 01:19:00;;;;;;;;;22.25;21.75;;;;;12.17;100.00;100625.53;2107954;27;46215;-51
2024/02/27 01:20:00;;;;;;;;;27.50;25.50;;;;;12.17;100.00;100630.88;2106307;27;46652;-52
2024/02/27 01:21:02;;;;;;;;;29.50;26.50;;;;;12.17;100.00;100622.88;2108220;27;46087;-52
2024/02/27 01:22:02;;;;;;;;;23.40;21.20;;;;;12.17;100.00;100628.22;2107963;27;46552;-54
2024/02/27 01:23:03;;;;;;;;;25.25;24.00;;;;;12.16;100.00;100637.97;2109006;27;47037;-53
2024/02/27 01:24:03;;;;;;;;;26.00;26.00;;;;;12.18;100.00;100638.78;2107968;27;46245;-54
2024/02/27 01:25:04;;;;;;;;;17.75;16.50;;;;;12.20;100.00;100634.34;2108615;27;46303;-53
2024/02/27 01:26:04;;;;;;;;;26.75;25.75;;;;;12.20;100.00;100638.78;2108088;27;46823;-53
2024/02/27 01:27:05;;;;;;;;;29.25;24.25;;;;;12.19;100.00;100635.22;2106999;27;46465;-51
2024/02/27 01:28:06;;;;;;;;;27.75;27.75;;;;;12.21;100.00;100638.72;2108941;27;46328;-54
2024/02/27 01:29:06;;;;;;;;;29.50;25.00;;;;;12.22;100.00;100631.63;2107146;27;46169;-54
2024/02/27 01:30:07;;;;;;;;;21.25;20.50;;;;;12.19;100.00;100637.88;2098640;28;45969;-54
2024/02/27 01:31:07;;;;;;;;;23.25;23.25;;;;;12.18;100.00;100636.13;2099428;28;46970;-53
2024/02/27 01:32:09;;;;;;;;;26.25;24.00;;;;;12.17;100.00;100639.72;2107173;27;46373;-54
2024/02/27 01:33:10;;;;;;;;;25.00;23.80;;;;;12.14;100.00;100633.63;2107970;27;47801;-56
2024/02/27 01:34:11;;;;;;;;;27.20;25.60;;;;;12.11;100.00;100644.38;2106618;27;46633;-52
2024/02/27 01:35:12;;;;;;;;;26.60;24.20;;;;;12.08;100.00;100638.22;2107856;27;45389;-54
2024/02/27 01:36:12;;;;;;;;;25.75;25.75;;;;;12.08;100.00;100642.66;2105509;27;46778;-52
2024/02/27 01:37:13;;;;;;;;;27.00;24.50;;;;;12.06;100.00;100645.34;2107886;27;46648;-54
2024/02/27 01:38:13;;;;;;;;;23.50;23.50;;;;;12.05;100.00;100640.06;2108590;27;46352;-52
2024/02/27 01:39:13;;;;;;;;;23.50;20.25;;;;;12.06;100.00;100640.03;2108368;27;46090;-54
2024/02/27 01:40:14;;;;;;;;;25.75;24.00;;;;;12.07;100.00;100646.25;2106578;27;46787;-53
2024/02/27 01:41:14;;;;;;;;;26.75;22.75;;;;;12.02;100.00;100643.69;2109142;27;46537;-53
2024/02/27 01:42:15;;;;;;;;;27.50;26.25;;;;;12.01;100.00;100641.09;2107742;27;46390;-53
2024/02/27 01:43:22;;;;;;;;;26.00;25.50;;;;;12.02;100.00;100648.16;2108405;27;46115;-55
2024/02/27 01:44:22;;;;;;;;;29.60;27.80;;;;;12.02;100.00;100643.69;2107818;27;47006;-52
2024/02/27 01:45:23;;;;;;;;;26.75;25.25;;;;;12.04;100.00;100646.31;2107036;27;46113;-53
2024/02/27 01:46:24;;;;;;;;;27.75;27.75;;;;;12.04;100.00;100649.84;2107629;27;46833;-54
2024/02/27 01:47:24;;;;;;;;;30.40;29.60;;;;;12.01;100.00;100641.09;2106371;27;46510;-52
2024/02/27 01:48:25;;;;;;;;;32.75;28.50;;;;;12.02;100.00;100651.69;2107878;27;45618;-54
2024/02/27 01:49:26;;;;;;;;;29.25;27.25;;;;;12.02;100.00;100645.50;2107638;27;46566;-54
2024/02/27 01:50:27;;;;;;;;;28.60;26.60;;;;;12.02;100.00;100645.50;2107321;27;46668;-55
2024/02/27 01:51:28;;;;;;;;;29.00;26.25;;;;;12.03;100.00;100645.44;2107723;27;46719;-54
2024/02/27 01:52:28;;;;;;;;;23.50;21.75;;;;;12.03;100.00;100645.44;2105907;27;46468;-56
2024/02/27 01:53:29;;;;;;;;;24.00;23.25;;;;;12.04;100.00;100641.88;2106663;27;46354;-53
2024/02/27 01:54:30;;;;;;;;;30.00;28.60;;;;;12.03;100.00;100648.09;2108474;27;46981;-55
2024/02/27 01:55:30;;;;;;;;;27.50;26.50;;;;;12.01;100.00;100651.72;2108030;27;46229;-55
2024/02/27 01:56:31;;;;;;;;;30.50;27.75;;;;;11.93;100.00;100649.28;2106597;27;46284;-52
2024/02/27 01:57:33;;;;;;;;;27.75;23.75;;;;;11.95;100.00;100662.56;2108529;27;46215;-53
2024/02/27 01:58:34;;;;;;;;;27.60;27.00;;;;;11.94;100.00;100661.69;2107107;27;46404;-54
2024/02/27 01:59:36;;;;;;;;;27.80;25.60;;;;;11.94;100.00;100656.38;2095834;28;46804;-54
2024/02/27 02:00:36;;;;;;;;;29.80;27.60;;;;;11.93;100.00;100661.69;2095606;28;46425;-52
2024/02/27 02:01:38;;;;;;;;;30.25;28.25;;;;;11.91;100.00;100660.88;2107640;27;46276;-52
2024/02/27 02:02:43;;;;;;;;;32.20;30.60;;;;;11.97;100.00;100660.72;2108424;27;46747;-52
2024/02/27 02:03:44;;;;;;;;;28.80;26.40;;;;;12.01;100.00;100662.38;2109067;27;45836;-52
2024/02/27 02:04:45;;;;;;;;;26.40;26.00;;;;;12.03;100.00;100669.38;2106470;27;46792;-51
2024/02/27 02:05:46;;;;;;;;;24.40;24.40;;;;;12.03;100.00;100669.38;2107704;27;46940;-53
2024/02/27 02:06:46;;;;;;;;;28.50;28.00;;;;;12.00;100.00;100665.94;2107411;27;46602;-51
2024/02/27 02:07:47;;;;;;;;;27.25;26.75;;;;;11.99;100.00;100666.88;2106385;27;46683;-53
2024/02/27 02:08:47;;;;;;;;;22.75;21.25;;;;;11.96;100.00;100673.16;2106998;27;46803;-54
2024/02/27 02:09:47;;;;;;;;;29.00;25.25;;;;;11.91;100.00;100666.19;2105712;27;46208;-52
2024/02/27 02:10:48;;;;;;;;;28.25;23.00;;;;;11.86;100.00;100666.34;2108239;27;46859;-55
2024/02/27 02:11:48;;;;;;;;;28.50;26.75;;;;;11.94;100.00;100669.66;2108780;27;46268;-52
2024/02/27 02:12:49;;;;;;;;;28.25;27.00;;;;;12.00;100.00;100673.94;2106674;27;46539;-51
2024/02/27 02:13:50;;;;;;;;;28.20;28.20;;;;;11.96;100.00;100673.16;2107066;27;46705;-52
2024/02/27 02:14:51;;;;;;;;;31.50;28.75;;;;;11.98;100.00;100671.31;2108724;27;46913;-53
2024/02/27 02:15:52;;;;;;;;;26.40;26.40;;;;;12.02;100.00;100678.28;2108046;27;46689;-53
2024/02/27 02:16:52;;;;;;;;;30.25;25.75;;;;;11.96;100.00;100675.81;2108101;27;46594;-52
2024/02/27 02:17:53;;;;;;;;;28.75;26.00;;;;;12.01;100.00;100687.19;2107354;27;46563;-52
2024/02/27 02:18:53;;;;;;;;;26.25;24.00;;;;;11.92;100.00;100678.56;2107146;27;46385;-53
2024/02/27 02:19:53;;;;;;;;;29.50;28.25;;;;;11.96;100.00;100674.94;2108772;27;46585;-55
2024/02/27 02:20:54;;;;;;;;;26.75;24.25;;;;;11.90;100.00;100681.28;2107579;27;46325;-52
2024/02/27 02:21:56;;;;;;;;;29.25;27.00;;;;;12.04;100.00;100681.75;2108279;27;46825;-48
2024/02/27 02:22:57;;;;;;;;;25.80;25.40;;;;;12.02;100.00;100680.06;2105336;27;46397;-51
2024/02/27 02:23:59;;;;;;;;;28.00;26.25;;;;;12.07;100.00;100691.47;2106639;27;46561;-53
2024/02/27 02:25:00;;;;;;;;;29.80;26.60;;;;;11.95;100.00;100684.69;2107272;27;46875;-52
2024/02/27 02:26:02;;;;;;;;;27.20;25.00;;;;;12.05;100.00;100686.16;2105896;27;46559;-52
2024/02/27 02:27:02;;;;;;;;;32.40;30.40;;;;;12.07;100.00;100687.03;2106372;27;46420;-53
2024/02/27 02:28:04;;;;;;;;;24.00;22.75;;;;;12.08;100.00;100685.22;2107671;27;46408;-50
2024/02/27 02:29:05;;;;;;;;;29.40;27.20;;;;;12.07;100.00;100686.16;2108309;27;46121;-51
2024/02/27 02:30:06;;;;;;;;;31.80;26.80;;;;;12.12;100.00;100684.22;2107162;27;46270;-53
2024/02/27 02:31:06;;;;;;;;;28.60;25.80;;;;;12.14;100.00;100689.50;2090230;28;46412;-56
2024/02/27 02:32:07;;;;;;;;;31.00;29.75;;;;;12.15;100.00;100673.47;2087431;28;46236;-52
2024/02/27 02:33:09;;;;;;;;;22.25;22.25;;;;;12.16;100.00;100683.19;2094953;28;46196;-52
2024/02/27 02:34:09;;;;;;;;;26.60;25.60;;;;;12.20;100.00;100690.19;2096317;28;45862;-54
2024/02/27 02:35:09;;;;;;;;;28.75;26.00;;;;;12.21;100.00;100689.28;2095975;28;46232;-52
2024/02/27 02:36:10;;;;;;;;;33.25;29.00;;;;;12.21;100.00;100688.41;2095479;28;46229;-53
2024/02/27 02:37:10;;;;;;;;;26.75;26.25;;;;;12.18;100.00;100685.81;2095674;28;46158;-53
2024/02/27 02:38:11;;;;;;;;;36.00;32.00;;;;;12.20;100.00;100692.00;2095127;28;46456;-52
2024/02/27 02:39:11;;;;;;;;;55.50;44.50;;;;;12.19;100.00;100692.88;2095919;28;46661;-55
2024/02/27 02:40:12;;;;;;;;;48.25;38.50;;;;;12.25;100.00;100700.69;2095806;28;46220;-52
2024/02/27 02:41:12;;;;;;;;;36.25;31.50;;;;;12.21;100.00;100693.72;2088143;28;46986;-51
2024/02/27 02:42:14;;;;;;;;;26.50;26.00;;;;;12.27;100.00;100696.19;2089137;28;46172;-52
2024/02/27 02:43:14;;;;;;;;;25.60;25.40;;;;;12.23;100.00;100705.19;2095717;28;46829;-52
2024/02/27 02:44:15;;;;;;;;;25.75;24.75;;;;;12.24;100.00;100701.63;2095585;28;46280;-51
2024/02/27 02:45:15;;;;;;;;;24.25;22.75;;;;;12.19;100.00;100692.88;2095906;28;46092;-52
2024/02/27 02:46:16;;;;;;;;;28.50;27.75;;;;;12.18;100.00;100696.47;2095427;28;46677;-52
2024/02/27 02:47:16;;;;;;;;;28.50;26.25;;;;;12.13;100.00;100696.59;2095644;28;46911;-53
2024/02/27 02:48:16;;;;;;;;;27.25;24.75;;;;;12.14;100.00;100701.00;2095744;28;46236;-53
2024/02/27 02:49:17;;;;;;;;;26.25;23.50;;;;;12.16;100.00;100692.97;2095493;28;46293;-52
2024/02/27 02:50:17;;;;;;;;;27.75;25.25;;;;;12.15;100.00;100694.75;2096143;28;46961;-51
2024/02/27 02:51:17;;;;;;;;;27.25;25.00;;;;;12.12;100.00;100694.00;2095798;28;46400;-50
2024/02/27 02:52:17;;;;;;;;;22.50;21.50;;;;;12.11;100.00;100702.88;2094856;28;46917;-52
2024/02/27 02:53:18;;;;;;;;;32.50;31.00;;;;;12.12;100.00;100699.31;2095588;28;46486;-52
2024/02/27 02:54:18;;;;;;;;;28.50;27.25;;;;;12.07;100.00;100702.97;2095273;28;46232;-53
2024/02/27 02:55:18;;;;;;;;;26.00;23.75;;;;;12.11;100.00;100697.56;2095229;28;46363;-53
2024/02/27 02:56:19;;;;;;;;;27.00;25.00;;;;;12.05;100.00;100703.91;2095850;28;46314;-52
2024/02/27 02:57:19;;;;;;;;;25.50;23.50;;;;;12.11;100.00;100700.22;2095794;28;46183;-54
2024/02/27 02:58:19;;;;;;;;;27.50;24.25;;;;;12.12;100.00;100701.97;2095664;28;46427;-52
2024/02/27 02:59:23;;;;;;;;;24.50;23.25;;;;;12.13;100.00;100703.72;2094011;28;46277;-53
2024/02/27 03:00:24;;;;;;;;;29.40;28.00;;;;;12.11;100.00;100710.88;2095999;28;46408;-54
2024/02/27 03:01:24;;;;;;;;;25.75;25.00;;;;;12.10;100.00;100703.81;2095615;28;46794;-53
2024/02/27 03:02:24;;;;;;;;;32.75;25.25;;;;;12.11;100.00;100718.84;2094902;28;46647;-52
2024/02/27 03:03:25;;;;;;;;;30.00;28.00;;;;;12.11;100.00;100717.06;2095098;28;46649;-54
2024/02/27 03:04:25;;;;;;;;;27.50;25.75;;;;;12.11;100.00;100717.06;2095741;28;46581;-54
2024/02/27 03:05:27;;;;;;;;;29.00;27.25;;;;;12.05;100.00;100712.75;2096324;28;46757;-51
2024/02/27 03:06:27;;;;;;;;;29.20;26.00;;;;;12.08;100.00;100719.81;2095594;28;47349;-50
2024/02/27 03:07:27;;;;;;;;;30.25;26.50;;;;;12.05;100.00;100726.06;2095182;28;46711;-53
2024/02/27 03:08:28;;;;;;;;;24.50;24.50;;;;;12.05;100.00;100725.19;2095616;28;46782;-53
2024/02/27 03:09:30;;;;;;;;;28.50;27.00;;;;;12.12;100.00;100720.59;2095322;28;46208;-53
2024/02/27 03:10:31;;;;;;;;;25.40;23.40;;;;;12.13;100.00;100733.84;2094923;28;46834;-52
2024/02/27 03:11:31;;;;;;;;;25.50;24.25;;;;;12.10;100.00;100725.09;2095299;28;46808;-53
2024/02/27 03:12:31;;;;;;;;;27.75;26.25;;;;;12.14;100.00;100729.41;2095595;28;46264;-53
2024/02/27 03:13:32;;;;;;;;;31.50;30.00;;;;;12.10;100.00;100731.28;2095516;28;46349;-52
2024/02/27 03:14:32;;;;;;;;;26.75;26.75;;;;;12.11;100.00;100727.69;2095681;28;46202;-53
2024/02/27 03:15:32;;;;;;;;;31.25;28.75;;;;;12.11;100.00;100737.47;2094317;28;46070;-52
2024/02/27 03:16:33;;;;;;;;;27.00;25.75;;;;;12.12;100.00;100740.09;2095296;28;46222;-50
2024/02/27 03:17:33;;;;;;;;;27.50;26.75;;;;;12.12;100.00;100732.09;2095418;28;46348;-50
2024/02/27 03:18:33;;;;;;;;;27.00;26.25;;;;;12.13;100.00;100732.97;2094908;28;46244;-54
2024/02/27 03:19:33;;;;;;;;;27.75;25.25;;;;;12.13;100.00;100728.53;2093059;28;46379;-53
2024/02/27 03:20:34;;;;;;;;;30.00;27.25;;;;;12.14;100.00;100734.72;2095483;28;46191;-52
2024/02/27 03:21:34;;;;;;;;;28.75;26.00;;;;;12.12;100.00;100734.75;2095838;28;46210;-51
2024/02/27 03:22:35;;;;;;;;;25.50;22.75;;;;;12.14;100.00;100734.72;2095463;28;46552;-54
2024/02/27 03:23:35;;;;;;;;;30.50;26.00;;;;;12.08;100.00;100735.78;2095435;28;46623;-51
2024/02/27 03:24:36;;;;;;;;;35.50;29.50;;;;;12.07;100.00;100742.88;2095137;28;46613;-54
2024/02/27 03:25:36;;;;;;;;;31.00;28.00;;;;;12.07;100.00;100739.34;2094830;28;46630;-54
2024/02/27 03:26:37;;;;;;;;;31.00;27.25;;;;;12.06;100.00;100737.56;2095628;28;45950;-56
2024/02/27 03:27:38;;;;;;;;;29.75;25.75;;;;;12.04;100.00;100728.78;2098308;28;46662;-51
2024/02/27 03:28:39;;;;;;;;;26.60;23.60;;;;;12.01;100.00;100739.50;2098866;28;46601;-54
2024/02/27 03:29:39;;;;;;;;;29.75;28.25;;;;;12.01;100.00;100737.72;2089742;28;46581;-54
2024/02/27 03:30:39;;;;;;;;;30.00;27.25;;;;;12.03;100.00;100735.00;2088266;28;46873;-51
2024/02/27 03:31:40;;;;;;;;;29.75;27.00;;;;;12.04;100.00;100742.94;2095609;28;46897;-53
2024/02/27 03:32:40;;;;;;;;;29.75;26.50;;;;;12.03;100.00;100735.88;2105905;27;46288;-53
2024/02/27 03:33:40;;;;;;;;;33.00;30.50;;;;;11.91;100.00;100745.97;2104645;27;46497;-54
2024/02/27 03:34:41;;;;;;;;;26.50;25.25;;;;;11.88;100.00;100736.28;2107002;27;47952;-52
2024/02/27 03:35:41;;;;;;;;;27.75;27.75;;;;;11.84;100.00;100747.06;2106513;27;47460;-53
2024/02/27 03:36:41;;;;;;;;;28.75;25.75;;;;;11.99;100.00;100749.31;2106918;27;46211;-52
2024/02/27 03:37:43;;;;;;;;;29.75;27.75;;;;;12.08;100.00;100744.63;2105301;27;46393;-48
2024/02/27 03:38:43;;;;;;;;;26.80;24.40;;;;;12.12;100.00;100744.53;2106855;27;46613;-51
2024/02/27 03:39:43;;;;;;;;;28.75;27.00;;;;;12.12;100.00;100747.19;2104954;27;46523;-48
2024/02/27 03:40:44;;;;;;;;;27.00;24.75;;;;;12.12;100.00;100750.72;2089164;28;46256;-48
2024/02/27 03:41:44;;;;;;;;;27.00;25.75;;;;;12.11;100.00;100748.09;2089794;28;46202;-50
2024/02/27 03:42:45;;;;;;;;;26.25;23.25;;;;;12.12;100.00;100750.72;2089374;28;46837;-51
2024/02/27 03:43:46;;;;;;;;;26.50;25.00;;;;;12.11;100.00;100753.44;2089829;28;46636;-54
2024/02/27 03:44:46;;;;;;;;;27.50;27.25;;;;;12.11;100.00;100756.97;2090246;28;46255;-53
2024/02/27 03:45:46;;;;;;;;;23.50;21.75;;;;;12.14;100.00;100748.88;2089616;28;46021;-53
2024/02/27 03:46:46;;;;;;;;;31.00;27.00;;;;;12.14;100.00;100761.31;2089573;28;46562;-54
2024/02/27 03:47:47;;;;;;;;;28.75;26.50;;;;;12.05;100.00;100757.97;2084523;28;46328;-51
2024/02/27 03:48:47;;;;;;;;;26.50;24.50;;;;;11.91;100.00;100762.81;2085547;28;46595;-50
2024/02/27 03:49:47;;;;;;;;;29.50;26.00;;;;;11.72;100.00;100759.72;2088941;28;46888;-51
2024/02/27 03:50:48;;;;;;;;;28.00;27.75;;;;;11.80;100.00;100767.53;2088574;28;46625;-50
2024/02/27 03:51:48;;;;;;;;;29.50;24.25;;;;;11.80;100.00;100764.88;2076266;28;46437;-52
2024/02/27 03:52:48;;;;;;;;;29.00;25.25;;;;;11.79;100.00;100768.44;2076360;28;46438;-54
2024/02/27 03:53:49;;;;;;;;;27.50;26.75;;;;;11.78;100.00;100780.81;2090396;28;46369;-53
2024/02/27 03:54:49;;;;;;;;;27.50;25.50;;;;;11.78;100.00;100772.84;2089552;28;46236;-52
2024/02/27 03:55:49;;;;;;;;;32.25;26.75;;;;;11.74;100.00;100775.63;2090202;28;46827;-51
2024/02/27 03:56:50;;;;;;;;;32.25;28.25;;;;;11.75;100.00;100785.34;2089930;28;46228;-53
2024/02/27 03:57:50;;;;;;;;;26.50;23.50;;;;;11.76;100.00;100784.44;2081772;28;46465;-53
2024/02/27 03:58:50;;;;;;;;;25.00;23.25;;;;;11.67;100.00;100793.50;2081377;28;45881;-49
2024/02/27 03:59:51;;;;;;;;;29.50;28.75;;;;;11.65;100.00;100787.38;2089908;28;46291;-53
2024/02/27 04:00:51;;;;;;;;;33.75;29.75;;;;;11.70;100.00;100781.94;2090236;28;46306;-49
2024/02/27 04:01:52;;;;;;;;;26.25;26.00;;;;;11.70;100.00;100781.94;2090316;28;46296;-49
2024/02/27 04:02:53;;;;;;;;;25.25;24.00;;;;;11.66;100.00;100786.44;2081918;28;46232;-51
2024/02/27 04:03:53;;;;;;;;;24.60;23.00;;;;;11.63;100.00;100789.19;2081166;28;46182;-51
2024/02/27 04:04:54;;;;;;;;;30.00;24.75;;;;;11.63;100.00;100788.31;2089587;28;46839;-50
2024/02/27 04:05:54;;;;;;;;;30.50;28.25;;;;;11.56;100.00;100792.94;2090196;28;46063;-51
2024/02/27 04:06:54;;;;;;;;;29.00;26.75;;;;;11.57;100.00;100796.47;2087499;28;46198;-50
2024/02/27 04:07:55;;;;;;;;;24.50;21.75;;;;;11.58;100.00;100798.22;2089880;28;46915;-52
2024/02/27 04:08:55;;;;;;;;;25.25;22.25;;;;;11.61;100.00;100798.13;2090359;28;46325;-52
2024/02/27 04:09:55;;;;;;;;;31.50;26.25;;;;;11.59;100.00;100797.28;2090463;28;46585;-52
2024/02/27 04:10:56;;;;;;;;;23.50;21.75;;;;;11.74;100.00;100802.22;2089460;28;46215;-52
2024/02/27 04:11:56;;;;;;;;;22.25;20.75;;;;;11.76;100.00;100800.41;2090091;28;47514;-51
2024/02/27 04:12:56;;;;;;;;;27.00;25.75;;;;;11.76;100.00;100806.59;2107076;27;46477;-52
2024/02/27 04:13:57;;;;;;;;;29.25;27.75;;;;;11.76;100.00;100803.06;2105777;27;46395;-54
2024/02/27 04:14:57;;;;;;;;;27.00;24.50;;;;;11.76;100.00;100803.06;2107550;27;46871;-54
2024/02/27 04:15:58;;;;;;;;;28.75;24.50;;;;;11.75;100.00;100807.50;2106814;27;46633;-51
2024/02/27 04:16:59;;;;;;;;;29.25;28.75;;;;;11.75;100.00;100807.50;2106505;27;46293;-52
2024/02/27 04:18:00;;;;;;;;;30.20;29.80;;;;;11.75;100.00;100802.19;2107475;27;46276;-53
2024/02/27 04:19:01;;;;;;;;;24.20;23.60;;;;;11.76;100.00;100797.75;2107008;27;46310;-51
2024/02/27 04:20:01;;;;;;;;;28.25;26.75;;;;;11.74;100.00;100805.75;2107299;27;46866;-54
2024/02/27 04:21:03;;;;;;;;;27.50;22.00;;;;;11.73;100.00;100801.34;2107231;27;46523;-52
2024/02/27 04:22:04;;;;;;;;;27.80;26.00;;;;;11.73;100.00;100800.47;2106161;27;46433;-52
2024/02/27 04:23:04;;;;;;;;;29.25;28.75;;;;;11.73;100.00;100806.66;2107450;27;46313;-54
2024/02/27 04:24:05;;;;;;;;;30.00;28.00;;;;;11.73;100.00;100803.13;2104608;27;46410;-51
2024/02/27 04:25:05;;;;;;;;;27.00;27.00;;;;;11.71;100.00;100804.97;2104899;27;46198;-54
2024/02/27 04:26:06;;;;;;;;;30.75;25.50;;;;;11.72;100.00;100807.59;2107507;27;46687;-50
2024/02/27 04:27:06;;;;;;;;;26.25;25.50;;;;;11.72;100.00;100799.59;2106079;27;46242;-55
2024/02/27 04:28:06;;;;;;;;;29.75;27.75;;;;;11.75;100.00;100809.28;2107114;27;46694;-52
2024/02/27 04:29:07;;;;;;;;;28.50;26.00;;;;;11.74;100.00;100810.19;2107131;27;46517;-51
2024/02/27 04:30:08;;;;;;;;;24.75;24.75;;;;;11.72;100.00;100804.94;2106626;27;46833;-54
2024/02/27 04:31:08;;;;;;;;;23.80;20.60;;;;;11.70;100.00;100812.06;2106668;27;46377;-51
2024/02/27 04:32:10;;;;;;;;;26.25;25.00;;;;;11.71;100.00;100802.31;2106323;27;46454;-52